createdAt,value
2017-10-05T00:03:28.446Z,0
2017-10-05T00:13:15.428Z,0
2017-10-05T00:23:15.337Z,0
2017-10-05T00:33:15.463Z,0
2017-10-05T00:43:15.359Z,0
2017-10-05T00:53:15.373Z,0
2017-10-05T01:03:15.362Z,0
2017-10-05T01:13:15.306Z,0
2017-10-05T01:23:16.261Z,0
2017-10-05T01:33:15.295Z,0
2017-10-05T01:43:15.284Z,0
2017-10-05T01:53:15.336Z,0
2017-10-05T02:03:15.281Z,0
2017-10-05T02:13:15.261Z,0
2017-10-05T02:23:15.365Z,0
2017-10-05T02:33:15.264Z,0
2017-10-05T02:43:15.302Z,0
2017-10-05T02:53:15.313Z,0
2017-10-05T03:03:15.280Z,0
2017-10-05T03:13:15.368Z,0
2017-10-05T03:23:15.316Z,0
2017-10-05T03:33:15.239Z,0
2017-10-05T03:43:15.373Z,0
2017-10-05T03:53:15.313Z,0
2017-10-05T04:03:15.251Z,0
2017-10-05T04:13:15.311Z,0
2017-10-05T04:23:15.268Z,0
2017-10-05T04:33:15.308Z,0
2017-10-05T04:43:15.282Z,0
2017-10-05T04:53:15.269Z,0
2017-10-05T05:03:15.344Z,0
2017-10-05T05:13:15.328Z,0
2017-10-05T05:23:15.370Z,0
2017-10-05T05:33:15.342Z,0
2017-10-05T05:43:15.324Z,0
2017-10-05T05:53:15.408Z,0
2017-10-05T06:03:15.271Z,0
2017-10-05T06:13:15.268Z,0
2017-10-05T06:23:15.333Z,10
2017-10-05T06:33:15.290Z,10
2017-10-05T06:43:15.230Z,15
2017-10-05T06:53:15.310Z,20
2017-10-05T07:03:15.303Z,15
2017-10-05T07:13:15.347Z,15
2017-10-05T07:23:15.285Z,20
2017-10-05T07:33:15.236Z,30
2017-10-05T07:43:15.337Z,25
2017-10-05T07:53:15.344Z,40
2017-10-05T08:03:15.215Z,45
2017-10-05T08:13:15.290Z,35
2017-10-05T08:23:15.351Z,75
2017-10-05T08:33:15.281Z,70
2017-10-05T08:43:15.257Z,80
2017-10-05T08:53:15.227Z,50
2017-10-05T09:03:15.883Z,130
2017-10-05T09:13:15.279Z,55
2017-10-05T09:23:20.687Z,80
2017-10-05T09:33:15.302Z,140
2017-10-05T09:43:15.248Z,45
2017-10-05T09:53:26.903Z,185
2017-10-05T10:03:15.280Z,180
2017-10-05T10:13:16.311Z,75
2017-10-05T10:23:15.312Z,100
2017-10-05T10:33:15.264Z,125
2017-10-05T10:43:15.373Z,125
2017-10-05T10:53:15.297Z,195
2017-10-05T11:03:15.255Z,195
2017-10-05T11:13:15.288Z,165
2017-10-05T11:23:16.201Z,130
2017-10-05T11:33:15.345Z,145
2017-10-05T11:43:15.352Z,190
2017-10-05T11:53:15.217Z,55
2017-10-05T12:03:15.344Z,175
2017-10-05T12:13:15.891Z,130
2017-10-05T12:23:16.237Z,140
2017-10-05T12:33:15.532Z,105
2017-10-05T12:43:15.276Z,105
2017-10-05T12:53:15.339Z,175
2017-10-05T13:03:15.527Z,140
2017-10-05T13:13:15.291Z,100
2017-10-05T13:23:15.365Z,100
2017-10-05T13:33:15.298Z,100
2017-10-05T13:43:15.345Z,100
2017-10-05T13:53:15.331Z,95
2017-10-05T14:03:15.241Z,110
2017-10-05T14:13:15.334Z,75
2017-10-05T14:23:15.281Z,190
2017-10-05T14:33:15.260Z,115
2017-10-05T14:43:15.292Z,90
2017-10-05T14:53:15.248Z,85
2017-10-05T15:03:15.368Z,105
2017-10-05T15:13:15.289Z,140
2017-10-05T15:23:15.487Z,95
2017-10-05T15:33:15.349Z,75
2017-10-05T15:43:15.304Z,50
2017-10-05T15:53:15.692Z,65
2017-10-05T16:03:16.330Z,45
2017-10-05T16:13:15.404Z,30
2017-10-05T16:23:15.348Z,15
2017-10-05T16:33:15.271Z,10
2017-10-05T16:43:15.395Z,10
2017-10-05T16:53:15.338Z,5
2017-10-05T17:03:15.420Z,0
2017-10-05T17:13:15.338Z,0
2017-10-05T17:23:15.298Z,0
2017-10-05T17:33:15.513Z,0
2017-10-05T17:43:15.555Z,0
2017-10-05T17:53:15.738Z,0
2017-10-05T18:03:15.780Z,0
2017-10-05T18:13:15.426Z,0
2017-10-05T18:23:15.494Z,0
2017-10-05T18:33:15.424Z,0
2017-10-05T18:43:16.187Z,0
2017-10-05T18:53:15.513Z,0
2017-10-05T19:03:15.622Z,0
2017-10-05T19:13:15.702Z,0
2017-10-05T19:23:15.935Z,0
2017-10-05T19:33:15.974Z,0
2017-10-05T19:43:15.664Z,0
2017-10-05T19:53:15.610Z,0
2017-10-05T20:03:15.680Z,0
2017-10-05T20:13:15.750Z,0
2017-10-05T20:23:16.615Z,0
2017-10-05T20:33:15.761Z,0
2017-10-05T20:43:28.160Z,0
2017-10-05T20:53:15.828Z,0
2017-10-05T21:03:15.743Z,0
2017-10-05T21:13:16.110Z,0
2017-10-05T21:23:15.775Z,0
2017-10-05T21:33:15.881Z,0
2017-10-05T21:43:15.989Z,0
2017-10-05T21:53:15.713Z,0
2017-10-05T22:03:16.059Z,0
2017-10-05T22:13:15.842Z,0
2017-10-05T22:23:16.080Z,0
2017-10-05T22:33:15.849Z,0
2017-10-05T22:43:15.891Z,0
2017-10-05T22:53:15.834Z,0
2017-10-05T23:03:15.964Z,0
2017-10-05T23:13:15.870Z,0
2017-10-05T23:23:15.946Z,0
2017-10-05T23:33:15.872Z,0
2017-10-05T23:43:15.946Z,0
2017-10-05T23:53:15.805Z,0
